createdAt,value
2019-06-07T00:01:11.289Z,7.17
2019-06-07T00:03:37.860Z,7.10
2019-06-07T00:06:06.915Z,8.13
2019-06-07T00:08:34.208Z,7.92
2019-06-07T00:11:01.597Z,8.33
2019-06-07T00:13:28.916Z,9.95
2019-06-07T00:15:56.160Z,9.93
2019-06-07T00:18:26.097Z,7.33
2019-06-07T00:20:53.577Z,7.80
2019-06-07T00:23:22.844Z,7.37
2019-06-07T00:25:50.088Z,7.40
2019-06-07T00:28:20.080Z,6.70
2019-06-07T00:30:52.291Z,7.83
2019-06-07T00:33:19.261Z,8.23
2019-06-07T00:35:45.372Z,9.10
2019-06-07T00:38:14.397Z,8.45
2019-06-07T00:40:41.989Z,9.15
2019-06-07T00:43:15.160Z,9.28
2019-06-07T00:45:39.565Z,7.87
2019-06-07T00:48:06.963Z,10.43
2019-06-07T00:50:34.208Z,8.28
2019-06-07T00:53:23.498Z,9.25
2019-06-07T00:55:30.624Z,9.33
2019-06-07T00:57:57.807Z,9.33
2019-06-07T01:00:25.909Z,8.67
2019-06-07T01:02:53.102Z,9.13
2019-06-07T01:05:26.185Z,10.08
2019-06-07T01:07:49.375Z,9.93
2019-06-07T01:10:34.663Z,10.13
2019-06-07T01:12:45.747Z,8.67
2019-06-07T01:15:15.765Z,10.25
2019-06-07T01:18:24.106Z,9.68
2019-06-07T01:20:11.331Z,9.75
2019-06-07T01:22:38.840Z,10.03
2019-06-07T01:25:06.999Z,9.75
2019-06-07T01:27:34.883Z,10.37
2019-06-07T01:30:02.299Z,10.43
2019-06-07T01:32:31.732Z,10.90
2019-06-07T01:34:58.864Z,11.45
2019-06-07T01:37:28.476Z,13.03
2019-06-07T01:39:55.704Z,11.05
2019-06-07T01:42:25.254Z,10.63
2019-06-07T01:44:52.080Z,11.43
2019-06-07T01:47:21.197Z,12.13
2019-06-07T01:49:50.379Z,11.53
2019-06-07T01:52:19.412Z,11.75
2019-06-07T01:54:57.870Z,11.30
2019-06-07T01:57:36.221Z,12.68
2019-06-07T01:59:46.241Z,12.93
2019-06-07T02:02:13.988Z,12.88
2019-06-07T02:04:42.513Z,13.08
2019-06-07T02:07:09.665Z,12.30
2019-06-07T02:09:36.827Z,12.37
2019-06-07T02:12:25.042Z,11.67
2019-06-07T02:14:36.050Z,11.63
2019-06-07T02:17:04.859Z,11.43
2019-06-07T02:19:33.403Z,14.25
2019-06-07T02:22:01.057Z,12.00
2019-06-07T02:24:31.267Z,14.78
2019-06-07T02:26:57.910Z,13.03
2019-06-07T02:29:25.508Z,12.37
2019-06-07T02:31:54.441Z,13.43
2019-06-07T02:34:24.039Z,11.70
2019-06-07T02:36:50.883Z,11.38
2019-06-07T02:39:18.347Z,12.90
2019-06-07T02:41:45.938Z,13.48
2019-06-07T02:44:13.322Z,13.58
2019-06-07T02:46:49.209Z,11.27
2019-06-07T02:49:10.934Z,12.80
2019-06-07T02:51:41.367Z,11.70
2019-06-07T02:54:07.728Z,13.28
2019-06-07T02:56:53.999Z,14.45
2019-06-07T02:59:05.500Z,13.53
2019-06-07T03:01:39.458Z,11.07
2019-06-07T03:04:05.945Z,14.15
2019-06-07T03:06:38.888Z,15.78
2019-06-07T03:09:04.618Z,14.93
2019-06-07T03:11:36.943Z,15.53
2019-06-07T03:14:03.020Z,15.35
2019-06-07T03:16:37.290Z,16.02
2019-06-07T03:19:12.324Z,15.15
2019-06-07T03:21:41.934Z,13.22
2019-06-07T03:24:09.232Z,13.95
2019-06-07T03:27:30.437Z,13.85
2019-06-07T03:29:09.496Z,13.50
2019-06-07T03:31:45.390Z,14.15
2019-06-07T03:34:05.679Z,15.23
2019-06-07T03:36:35.443Z,14.73
2019-06-07T03:39:04.469Z,14.55
2019-06-07T03:41:40.064Z,14.75
2019-06-07T03:44:01.335Z,15.65
2019-06-07T03:46:30.123Z,15.80
2019-06-07T03:48:58.010Z,14.27
2019-06-07T03:51:28.216Z,13.73
2019-06-07T03:53:55.369Z,14.43
2019-06-07T03:56:23.719Z,14.83
2019-06-07T03:58:51.511Z,14.13
2019-06-07T04:01:19.222Z,12.00
2019-06-07T04:03:51.624Z,12.13
2019-06-07T04:06:15.639Z,11.50
2019-06-07T04:08:43.084Z,11.80
2019-06-07T04:11:10.633Z,12.88
2019-06-07T04:13:42.578Z,12.18
2019-06-07T04:16:07.423Z,10.77
2019-06-07T04:18:36.465Z,11.20
2019-06-07T04:21:03.966Z,10.38
2019-06-07T04:23:34.927Z,10.48
2019-06-07T04:26:00.632Z,9.75
2019-06-07T04:29:16.509Z,9.97
2019-06-07T04:30:57.282Z,10.40
2019-06-07T04:33:25.729Z,9.90
2019-06-07T04:35:54.088Z,8.88
2019-06-07T04:38:21.473Z,10.77
2019-06-07T04:40:50.665Z,9.68
2019-06-07T04:43:18.526Z,9.40
2019-06-07T04:45:51.252Z,10.10
2019-06-07T04:48:17.973Z,8.28
2019-06-07T04:50:46.263Z,10.05
2019-06-07T04:53:19.268Z,9.65
2019-06-07T04:55:50.305Z,8.98
2019-06-07T04:58:18.004Z,7.83
2019-06-07T05:00:53.131Z,9.50
2019-06-07T05:03:14.787Z,8.20
2019-06-07T05:05:43.797Z,9.25
2019-06-07T05:08:27.046Z,8.20
2019-06-07T05:10:43.082Z,8.15
2019-06-07T05:13:09.109Z,9.50
2019-06-07T05:15:42.062Z,8.65
2019-06-07T05:18:09.139Z,11.00
2019-06-07T05:20:40.126Z,9.73
2019-06-07T05:23:05.378Z,9.63
2019-06-07T05:25:35.794Z,9.48
2019-06-07T05:28:01.728Z,9.93
2019-06-07T05:33:08.346Z,9.80
2019-06-07T05:35:39.764Z,8.75
2019-06-07T05:38:06.479Z,9.05
2019-06-07T05:40:35.040Z,11.22
2019-06-07T05:43:03.805Z,7.83
2019-06-07T05:45:32.322Z,8.83
2019-06-07T05:48:00.125Z,9.70
2019-06-07T05:50:43.663Z,9.78
2019-06-07T05:52:57.291Z,10.23
2019-06-07T05:55:24.567Z,10.80
2019-06-07T05:57:51.799Z,8.33
2019-06-07T06:00:19.119Z,9.18
2019-06-07T06:03:04.005Z,8.15
2019-06-07T06:05:32.349Z,8.43
2019-06-07T06:07:50.298Z,10.85
2019-06-07T06:10:15.112Z,9.10
2019-06-07T06:12:51.261Z,9.25
2019-06-07T06:15:12.196Z,8.60
2019-06-07T06:17:42.692Z,8.27
2019-06-07T06:20:08.661Z,8.95
2019-06-07T06:22:37.375Z,10.48
2019-06-07T06:28:09.584Z,9.30
2019-06-07T06:30:05.356Z,10.47
2019-06-07T06:32:46.095Z,8.68
2019-06-07T06:35:02.317Z,9.70
2019-06-07T06:37:29.636Z,12.03
2019-06-07T06:39:56.816Z,9.13
2019-06-07T06:42:24.437Z,8.78
2019-06-07T06:44:54.151Z,9.83
2019-06-07T06:47:21.193Z,9.60
2019-06-07T06:49:53.983Z,8.80
2019-06-07T06:52:18.283Z,11.70
2019-06-07T06:54:53.178Z,9.75
2019-06-07T06:57:19.666Z,9.00
2019-06-07T06:59:47.595Z,9.70
2019-06-07T07:02:13.614Z,9.75
2019-06-07T07:04:42.312Z,9.90
2019-06-07T07:07:10.920Z,10.82
2019-06-07T07:09:38.241Z,11.57
2019-06-07T07:12:12.328Z,9.77
2019-06-07T07:14:35.216Z,9.85
2019-06-07T07:17:02.505Z,11.53
2019-06-07T07:19:30.420Z,11.38
2019-06-07T07:21:58.120Z,9.43
2019-06-07T07:24:25.656Z,9.43
2019-06-07T07:26:56.084Z,9.58
2019-06-07T07:29:22.541Z,10.50
2019-06-07T07:31:52.407Z,10.35
2019-06-07T07:34:33.986Z,9.28
2019-06-07T07:36:50.998Z,9.83
2019-06-07T07:39:18.238Z,10.20
2019-06-07T07:42:10.966Z,9.70
2019-06-07T07:44:16.261Z,10.65
2019-06-07T07:46:44.997Z,10.38
2019-06-07T07:49:12.537Z,10.00
2019-06-07T07:51:39.748Z,8.38
2019-06-07T07:54:10.565Z,11.33
2019-06-07T07:56:36.192Z,9.53
2019-06-07T07:59:03.976Z,10.75
2019-06-07T08:01:31.528Z,10.08
2019-06-07T08:03:58.809Z,9.15
2019-06-07T08:06:26.348Z,8.77
2019-06-07T08:08:56.678Z,10.40
2019-06-07T08:11:22.809Z,9.50
2019-06-07T08:13:50.545Z,9.10
2019-06-07T08:16:18.875Z,10.03
2019-06-07T08:18:50.925Z,10.05
2019-06-07T08:21:25.652Z,9.85
2019-06-07T08:23:44.778Z,8.33
2019-06-07T08:26:12.072Z,10.28
2019-06-07T08:28:39.804Z,10.38
2019-06-07T08:31:08.304Z,9.90
2019-06-07T08:33:36.460Z,8.65
2019-06-07T08:36:15.097Z,9.65
2019-06-07T08:38:47.094Z,11.05
2019-06-07T08:41:11.432Z,9.40
2019-06-07T08:43:32.039Z,8.68
2019-06-07T08:46:04.407Z,8.90
2019-06-07T08:48:30.356Z,9.58
2019-06-07T08:51:02.225Z,10.08
2019-06-07T08:53:27.052Z,11.25
2019-06-07T08:55:58.846Z,8.83
2019-06-07T08:58:23.912Z,9.70
2019-06-07T09:00:51.661Z,9.05
2019-06-07T09:03:20.682Z,10.50
2019-06-07T09:05:49.885Z,9.45
2019-06-07T09:08:30.431Z,9.10
2019-06-07T09:10:47.245Z,10.10
2019-06-07T09:13:15.654Z,8.90
2019-06-07T09:15:44.477Z,8.90
2019-06-07T09:20:43.993Z,8.78
2019-06-07T09:23:16.705Z,8.07
2019-06-07T09:25:56.565Z,8.28
2019-06-07T09:28:19.163Z,11.00
2019-06-07T09:30:39.913Z,10.20
2019-06-07T09:33:09.099Z,8.65
2019-06-07T09:35:39.625Z,7.70
2019-06-07T09:38:23.361Z,9.05
2019-06-07T09:40:36.688Z,9.80
2019-06-07T09:43:54.261Z,10.17
2019-06-07T09:45:34.065Z,7.85
2019-06-07T09:48:05.691Z,8.67
2019-06-07T09:50:32.272Z,9.30
2019-06-07T09:53:10.661Z,9.58
2019-06-07T09:55:29.033Z,8.13
2019-06-07T09:58:06.900Z,8.83
2019-06-07T10:00:40.859Z,9.28
2019-06-07T10:03:02.296Z,9.63
2019-06-07T10:05:27.051Z,8.03
2019-06-07T10:08:09.801Z,8.73
2019-06-07T10:12:52.260Z,7.95
2019-06-07T10:15:20.082Z,9.18
2019-06-07T10:17:47.688Z,10.65
2019-06-07T10:20:16.877Z,9.08
2019-06-07T10:22:44.355Z,9.98
2019-06-07T10:25:12.143Z,9.13
2019-06-07T10:27:39.597Z,8.15
2019-06-07T10:30:08.256Z,9.40
2019-06-07T10:32:35.958Z,9.58
2019-06-07T10:35:05.019Z,9.78
2019-06-07T10:37:32.686Z,8.83
2019-06-07T10:40:00.631Z,8.43
2019-06-07T10:42:29.070Z,8.48
2019-06-07T10:44:56.362Z,9.65
2019-06-07T10:47:24.453Z,9.25
2019-06-07T10:49:51.733Z,10.23
2019-06-07T10:52:20.774Z,9.78
2019-06-07T10:54:48.755Z,9.08
2019-06-07T10:57:17.645Z,10.75
2019-06-07T10:59:45.248Z,7.28
2019-06-07T11:02:14.033Z,8.25
2019-06-07T11:04:42.503Z,9.28
2019-06-07T11:07:10.238Z,8.98
2019-06-07T11:09:37.623Z,9.38
2019-06-07T11:12:06.290Z,8.88
2019-06-07T11:14:33.750Z,10.53
2019-06-07T11:17:01.346Z,11.03
2019-06-07T11:19:28.686Z,10.78
2019-06-07T11:21:56.245Z,11.80
2019-06-07T11:24:24.859Z,7.55
2019-06-07T11:26:52.106Z,8.45
2019-06-07T11:29:19.351Z,8.40
2019-06-07T11:31:47.542Z,9.13
2019-06-07T11:34:16.205Z,9.43
2019-06-07T11:36:43.500Z,8.13
2019-06-07T11:39:11.087Z,9.33
2019-06-07T11:41:38.520Z,8.23
2019-06-07T11:44:06.675Z,8.93
2019-06-07T11:46:33.777Z,6.62
2019-06-07T11:49:01.714Z,7.97
2019-06-07T11:51:29.600Z,8.50
2019-06-07T11:53:57.236Z,7.55
2019-06-07T11:56:24.432Z,6.90
2019-06-07T11:58:51.795Z,8.33
2019-06-07T12:01:19.057Z,7.60
2019-06-07T12:03:46.149Z,7.35
2019-06-07T12:06:14.539Z,6.80
2019-06-07T12:08:42.245Z,8.37
2019-06-07T12:11:10.140Z,7.67
2019-06-07T12:13:37.657Z,8.95
2019-06-07T12:16:05.184Z,8.15
2019-06-07T12:18:33.238Z,8.30
2019-06-07T12:21:00.514Z,9.85
2019-06-07T12:23:28.057Z,8.20
2019-06-07T12:25:55.249Z,6.72
2019-06-07T12:28:22.467Z,6.97
2019-06-07T12:30:54.981Z,9.85
2019-06-07T12:33:21.769Z,7.47
2019-06-07T12:35:49.446Z,10.88
2019-06-07T12:38:17.354Z,6.42
2019-06-07T12:40:57.217Z,7.20
2019-06-07T12:43:16.591Z,5.43
2019-06-07T12:45:45.463Z,6.80
2019-06-07T12:48:17.661Z,7.65
2019-06-07T12:50:43.950Z,6.30
2019-06-07T12:53:11.733Z,6.50
2019-06-07T12:55:39.218Z,6.65
2019-06-07T12:58:06.846Z,7.37
2019-06-07T13:00:34.471Z,5.22
2019-06-07T13:03:01.847Z,8.10
2019-06-07T13:05:29.049Z,7.62
2019-06-07T13:07:56.188Z,5.53
2019-06-07T13:10:24.192Z,6.10
2019-06-07T13:12:51.925Z,6.28
2019-06-07T13:15:21.870Z,6.72
2019-06-07T13:17:48.677Z,5.73
2019-06-07T13:20:16.216Z,5.50
2019-06-07T13:22:43.532Z,7.35
2019-06-07T13:25:10.914Z,6.67
2019-06-07T13:27:38.982Z,5.00
2019-06-07T13:30:10.434Z,6.17
2019-06-07T13:32:36.018Z,7.20
2019-06-07T13:35:03.445Z,5.33
2019-06-07T13:37:30.933Z,5.75
2019-06-07T13:39:58.175Z,5.58
2019-06-07T13:42:25.443Z,8.48
2019-06-07T13:44:52.680Z,6.78
2019-06-07T13:47:21.053Z,6.47
2019-06-07T13:49:48.713Z,4.87
2019-06-07T13:52:16.806Z,4.70
2019-06-07T13:54:44.279Z,6.92
2019-06-07T13:57:15.769Z,7.70
2019-06-07T13:59:43.328Z,8.00
2019-06-07T14:02:11.355Z,7.20
2019-06-07T14:04:38.562Z,6.30
2019-06-07T14:07:06.036Z,6.22
2019-06-07T14:09:33.266Z,5.30
2019-06-07T14:12:00.799Z,7.27
2019-06-07T14:14:30.607Z,5.58
2019-06-07T14:16:58.216Z,5.40
2019-06-07T14:19:26.433Z,6.25
2019-06-07T14:21:53.765Z,6.43
2019-06-07T14:24:21.255Z,6.10
2019-06-07T14:27:07.729Z,7.07
2019-06-07T14:29:35.777Z,4.80
2019-06-07T14:32:03.365Z,5.90
2019-06-07T14:34:30.668Z,6.25
2019-06-07T14:36:58.537Z,6.67
2019-06-07T14:39:27.022Z,8.23
2019-06-07T14:42:08.564Z,5.35
2019-06-07T14:44:26.115Z,5.50
2019-06-07T14:46:53.719Z,5.58
2019-06-07T14:49:21.479Z,4.12
2019-06-07T14:51:48.862Z,7.53
2019-06-07T14:54:16.477Z,8.08
2019-06-07T14:56:43.951Z,5.33
2019-06-07T14:59:11.294Z,5.95
2019-06-07T15:01:40.725Z,4.60
2019-06-07T15:04:07.716Z,4.30
2019-06-07T15:06:35.733Z,5.90
2019-06-07T15:09:03.604Z,5.45
2019-06-07T15:11:33.108Z,7.50
2019-06-07T15:14:00.446Z,5.40
2019-06-07T15:16:30.202Z,6.20
2019-06-07T15:18:57.596Z,4.67
2019-06-07T15:21:24.876Z,6.05
2019-06-07T15:23:53.804Z,5.70
2019-06-07T15:26:21.372Z,4.97
2019-06-07T15:28:48.638Z,6.42
2019-06-07T15:31:15.924Z,5.78
2019-06-07T15:33:43.235Z,4.97
2019-06-07T15:36:10.637Z,4.80
2019-06-07T15:38:39.379Z,4.97
2019-06-07T15:41:08.017Z,5.08
2019-06-07T15:43:37.287Z,4.37
2019-06-07T15:46:04.878Z,5.67
2019-06-07T15:48:32.193Z,5.17
2019-06-07T15:50:59.501Z,4.33
2019-06-07T15:53:26.725Z,4.87
2019-06-07T15:55:53.964Z,5.25
2019-06-07T15:58:21.913Z,6.83
2019-06-07T16:00:50.213Z,5.72
2019-06-07T16:03:18.061Z,4.75
2019-06-07T16:05:45.823Z,7.40
2019-06-07T16:08:13.610Z,5.12
2019-06-07T16:10:41.064Z,9.88
2019-06-07T16:13:10.030Z,8.80
2019-06-07T16:15:39.133Z,6.53
2019-06-07T16:18:06.657Z,6.30
2019-06-07T16:20:35.155Z,6.27
2019-06-07T16:23:02.328Z,6.65
2019-06-07T16:25:29.993Z,9.33
2019-06-07T16:27:57.553Z,6.87
2019-06-07T16:30:24.717Z,5.70
2019-06-07T16:32:52.231Z,7.80
2019-06-07T16:35:19.633Z,7.17
2019-06-07T16:37:50.282Z,8.03
2019-06-07T16:40:16.301Z,5.85
2019-06-07T16:42:45.057Z,5.55
2019-06-07T16:45:13.148Z,4.90
2019-06-07T16:47:42.992Z,5.55
2019-06-07T16:50:11.362Z,5.60
2019-06-07T16:52:39.174Z,5.20
2019-06-07T16:55:08.858Z,5.53
2019-06-07T16:57:38.749Z,8.20
2019-06-07T17:00:07.174Z,4.85
2019-06-07T17:02:35.696Z,5.22
2019-06-07T17:05:04.633Z,4.70
2019-06-07T17:07:32.358Z,6.22
2019-06-07T17:10:00.059Z,5.80
2019-06-07T17:12:28.287Z,3.87
2019-06-07T17:14:55.895Z,5.45
2019-06-07T17:17:23.585Z,5.40
2019-06-07T17:19:50.820Z,6.50
2019-06-07T17:22:18.016Z,5.87
2019-06-07T17:24:45.562Z,8.55
2019-06-07T17:27:13.783Z,5.70
2019-06-07T17:29:42.011Z,4.17
2019-06-07T17:32:09.501Z,5.70
2019-06-07T17:34:36.775Z,5.70
2019-06-07T17:37:06.134Z,14.58
2019-06-07T17:39:33.768Z,6.22
2019-06-07T17:42:02.370Z,7.72
2019-06-07T17:44:32.162Z,17.77
2019-06-07T17:46:59.282Z,10.68
2019-06-07T17:49:26.680Z,10.40
2019-06-07T17:51:54.195Z,6.72
2019-06-07T17:54:21.582Z,10.32
2019-06-07T17:56:50.432Z,4.55
2019-06-07T17:59:17.857Z,14.03
2019-06-07T18:02:07.144Z,13.78
2019-06-07T18:04:14.785Z,8.33
2019-06-07T18:06:43.535Z,6.65
2019-06-07T18:09:13.995Z,7.12
2019-06-07T18:11:39.837Z,5.33
2019-06-07T18:14:10.941Z,6.28
2019-06-07T18:16:36.297Z,6.55
2019-06-07T18:19:04.032Z,5.12
2019-06-07T18:21:31.824Z,6.37
2019-06-07T18:23:59.329Z,5.60
2019-06-07T18:26:26.604Z,6.75
2019-06-07T18:28:54.710Z,5.12
2019-06-07T18:31:22.258Z,4.90
2019-06-07T18:33:50.904Z,12.00
2019-06-07T18:36:18.265Z,5.42
2019-06-07T18:38:46.890Z,5.05
2019-06-07T18:41:14.425Z,5.25
2019-06-07T18:43:41.573Z,6.30
2019-06-07T18:46:08.950Z,4.78
2019-06-07T18:48:36.509Z,5.97
2019-06-07T18:51:03.802Z,8.23
2019-06-07T18:53:30.994Z,4.92
2019-06-07T18:55:58.311Z,6.97
2019-06-07T18:58:25.674Z,9.15
2019-06-07T19:00:53.800Z,5.70
2019-06-07T19:03:21.096Z,6.03
2019-06-07T19:05:49.950Z,6.58
2019-06-07T19:08:17.332Z,6.53
2019-06-07T19:10:44.888Z,9.90
2019-06-07T19:13:12.052Z,5.33
2019-06-07T19:15:39.345Z,6.90
2019-06-07T19:18:06.479Z,8.20
2019-06-07T19:20:35.785Z,6.60
2019-06-07T19:23:03.101Z,7.25
2019-06-07T19:25:31.507Z,5.22
2019-06-07T19:28:00.919Z,9.18
2019-06-07T19:30:30.450Z,6.90
2019-06-07T19:32:59.560Z,7.83
2019-06-07T19:35:28.453Z,7.35
2019-06-07T19:37:55.965Z,6.60
2019-06-07T19:40:23.605Z,8.78
2019-06-07T19:42:52.171Z,10.40
2019-06-07T19:45:34.988Z,10.28
2019-06-07T19:47:49.178Z,9.88
2019-06-07T19:50:18.576Z,7.85
2019-06-07T19:52:46.200Z,7.60
2019-06-07T19:55:13.801Z,7.60
2019-06-07T19:57:41.113Z,9.00
2019-06-07T20:00:13.994Z,8.60
2019-06-07T20:02:37.977Z,8.55
2019-06-07T20:05:06.971Z,10.13
2019-06-07T20:07:34.323Z,7.33
2019-06-07T20:10:02.924Z,8.73
2019-06-07T20:12:30.180Z,10.03
2019-06-07T20:15:21.521Z,8.65
2019-06-07T20:17:26.914Z,7.95
2019-06-07T20:19:54.300Z,9.05
2019-06-07T20:22:21.555Z,8.45
2019-06-07T20:24:49.092Z,8.38
2019-06-07T20:27:17.098Z,8.53
2019-06-07T20:29:44.435Z,7.25
2019-06-07T20:32:12.911Z,9.18
2019-06-07T20:34:44.068Z,7.28
2019-06-07T20:37:09.673Z,12.30
2019-06-07T20:39:38.176Z,14.85
2019-06-07T20:42:05.940Z,8.03
2019-06-07T20:44:33.896Z,8.43
2019-06-07T20:47:02.194Z,9.38
2019-06-07T20:49:30.443Z,7.58
2019-06-07T20:51:58.289Z,8.70
2019-06-07T20:54:26.776Z,9.90
2019-06-07T20:56:56.009Z,9.10
2019-06-07T20:59:24.695Z,8.43
2019-06-07T21:01:52.244Z,12.50
2019-06-07T21:04:19.473Z,10.80
2019-06-07T21:06:48.699Z,13.28
2019-06-07T21:09:16.070Z,11.97
2019-06-07T21:11:43.148Z,10.03
2019-06-07T21:14:10.421Z,12.50
2019-06-07T21:16:37.986Z,5.20
2019-06-07T21:21:31.649Z,6.28
2019-06-07T21:23:58.940Z,15.03
2019-06-07T21:26:26.579Z,9.20
2019-06-07T21:28:53.731Z,17.10
2019-06-07T21:31:20.948Z,3.20
2019-06-07T21:33:48.732Z,5.22
2019-06-07T21:36:16.271Z,5.35
2019-06-07T21:38:43.742Z,8.70
2019-06-07T21:41:12.462Z,1.67
2019-06-07T21:43:41.133Z,7.30
2019-06-07T21:46:22.877Z,9.13
2019-06-07T21:48:52.362Z,2.77
2019-06-07T21:51:20.683Z,2.83
2019-06-07T21:53:52.984Z,4.00
2019-06-07T21:56:20.473Z,4.83
2019-06-07T21:58:49.537Z,0.93
2019-06-07T22:01:21.164Z,1.30
2019-06-07T22:03:56.521Z,4.03
2019-06-07T22:06:24.579Z,2.80
2019-06-07T22:08:53.152Z,11.43
2019-06-07T22:11:22.305Z,6.87
2019-06-07T22:13:54.416Z,1.30
2019-06-07T22:16:29.555Z,1.85
2019-06-07T22:19:04.472Z,3.67
2019-06-07T22:21:35.163Z,2.22
2019-06-07T22:24:02.605Z,6.20
2019-06-07T22:26:30.228Z,2.20
2019-06-07T22:28:58.061Z,2.30
2019-06-07T22:31:25.377Z,3.50
2019-06-07T22:33:52.602Z,7.35
2019-06-07T22:36:21.492Z,7.30
2019-06-07T22:38:48.779Z,4.08
2019-06-07T22:41:17.648Z,2.75
2019-06-07T22:43:45.304Z,6.25
2019-06-07T22:46:13.093Z,3.65
2019-06-07T22:48:40.406Z,1.70
2019-06-07T22:51:09.403Z,3.77
2019-06-07T22:53:43.554Z,2.60
2019-06-07T22:56:18.310Z,2.10
2019-06-07T22:58:47.270Z,1.25
2019-06-07T23:01:14.573Z,2.10
2019-06-07T23:03:42.081Z,1.05
2019-06-07T23:06:10.771Z,1.45
2019-06-07T23:08:38.225Z,1.72
2019-06-07T23:11:07.436Z,3.15
2019-06-07T23:13:34.759Z,2.72
2019-06-07T23:16:02.031Z,1.22
2019-06-07T23:18:29.384Z,3.00
2019-06-07T23:20:56.638Z,1.72
2019-06-07T23:23:24.779Z,2.42
2019-06-07T23:25:53.374Z,2.22
2019-06-07T23:28:20.690Z,1.47
2019-06-07T23:30:48.304Z,1.35
2019-06-07T23:33:16.748Z,4.20
2019-06-07T23:35:44.135Z,6.12
2019-06-07T23:38:11.264Z,3.02
2019-06-07T23:40:38.340Z,2.00
2019-06-07T23:43:06.121Z,1.15
2019-06-07T23:45:33.768Z,1.52
2019-06-07T23:48:01.094Z,1.40
2019-06-07T23:50:28.254Z,3.47
2019-06-07T23:52:56.932Z,2.12
2019-06-07T23:55:24.067Z,3.02
2019-06-07T23:57:51.371Z,3.08
